Time;durP1;ratioP1;P1;durP2;ratioP2;P2;SDS_P1;SDS_P2;PMS_P1;PMS_P2;Temp;Humidity;BMP_temperature;BMP_pressure;BME280_temperature;BME280_humidity;BME280_pressure;Samples;Min_cycle;Max_cycle;Signal;HPM_P1;HPM_P2
2023/03/31 00:01:40;;;;;;;5.18;2.72;;;11.70;84.80;;;;;;4918754;29;20036;-83
2023/03/31 00:04:08;;;;;;;5.18;2.50;;;11.70;84.70;;;;;;4919137;29;20032;-83
2023/03/31 00:06:36;;;;;;;4.82;2.30;;;11.70;84.80;;;;;;4918459;29;20039;-83
2023/03/31 00:09:10;;;;;;;5.15;2.42;;;11.70;84.80;;;;;;4918524;29;20040;-83
2023/03/31 00:11:36;;;;;;;5.15;2.45;;;11.70;84.80;;;;;;4916867;29;20032;-83
2023/03/31 00:14:02;;;;;;;4.57;2.35;;;11.70;84.70;;;;;;4917064;29;20028;-83
2023/03/31 00:16:28;;;;;;;5.13;2.30;;;11.70;84.80;;;;;;4916723;29;20031;-83
2023/03/31 00:18:54;;;;;;;5.55;2.67;;;11.70;84.80;;;;;;4916807;29;20024;-84
2023/03/31 00:21:28;;;;;;;5.88;2.10;;;11.70;84.80;;;;;;4916805;29;20127;-83
2023/03/31 00:23:56;;;;;;;4.70;2.15;;;11.70;84.80;;;;;;4917262;29;20020;-83
2023/03/31 00:26:21;;;;;;;4.15;2.10;;;11.70;84.80;;;;;;4917396;29;20033;-82
2023/03/31 00:28:48;;;;;;;5.32;2.55;;;11.70;84.80;;;;;;4917139;29;20031;-83
2023/03/31 00:31:14;;;;;;;4.80;2.40;;;11.70;84.80;;;;;;4916907;29;20039;-82
2023/03/31 00:33:39;;;;;;;4.85;2.33;;;11.70;84.80;;;;;;4916400;29;20028;-83
2023/03/31 00:36:05;;;;;;;5.38;2.40;;;11.70;84.80;;;;;;4916491;29;20028;-83
2023/03/31 00:38:32;;;;;;;4.53;2.30;;;11.70;84.80;;;;;;4916522;29;20396;-83
2023/03/31 00:40:58;;;;;;;4.53;2.20;;;11.70;84.80;;;;;;4917711;29;20028;-83
2023/03/31 00:43:28;;;;;;;4.90;2.20;;;11.70;84.80;;;;;;4917401;29;20024;-83
2023/03/31 00:46:03;;;;;;;5.13;2.33;;;11.70;84.90;;;;;;4946924;29;20028;-86
2023/03/31 00:48:29;;;;;;;4.25;2.10;;;11.70;84.90;;;;;;4930535;29;20040;-85
2023/03/31 00:50:58;;;;;;;4.95;2.13;;;11.70;84.90;;;;;;4931212;29;20035;-85
2023/03/31 00:53:28;;;;;;;4.40;2.25;;;11.70;84.90;;;;;;4930264;29;20065;-84
2023/03/31 00:56:05;;;;;;;4.60;2.20;;;11.70;84.90;;;;;;4930659;29;20489;-84
2023/03/31 00:58:32;;;;;;;4.90;2.30;;;11.70;84.90;;;;;;4940551;29;20038;-84
2023/03/31 01:01:01;;;;;;;4.28;2.10;;;11.70;84.90;;;;;;4946679;29;20497;-84
2023/03/31 01:03:29;;;;;;;5.15;2.13;;;11.70;84.90;;;;;;4947469;29;20055;-84
2023/03/31 01:06:05;;;;;;;5.70;2.38;;;11.70;84.90;;;;;;4944526;29;20024;-84
2023/03/31 01:08:35;;;;;;;4.30;1.90;;;11.70;84.90;;;;;;4936168;29;20404;-84
2023/03/31 01:11:03;;;;;;;4.55;2.00;;;11.60;84.80;;;;;;4945332;29;20517;-84
2023/03/31 01:13:30;;;;;;;4.15;2.05;;;11.70;84.90;;;;;;4945309;29;20036;-84
2023/03/31 01:15:56;;;;;;;4.13;2.00;;;11.70;84.90;;;;;;4943650;29;20027;-83
2023/03/31 01:18:22;;;;;;;3.67;1.70;;;11.70;84.90;;;;;;4935978;29;20559;-83
2023/03/31 01:21:09;;;;;;;3.72;2.05;;;11.70;84.90;;;;;;4944299;29;20042;-85
2023/03/31 01:24:01;;;;;;;4.75;2.00;;;11.70;84.90;;;;;;4939019;29;20020;-83
2023/03/31 01:26:46;;;;;;;3.85;1.83;;;11.70;85.00;;;;;;4937957;29;20023;-84
2023/03/31 01:29:26;;;;;;;4.75;1.92;;;11.70;85.00;;;;;;4942733;29;20648;-82
2023/03/31 01:32:08;;;;;;;3.90;1.90;;;11.70;85.00;;;;;;4934490;29;20031;-83
2023/03/31 01:35:00;;;;;;;;;;;11.70;85.00;;;;;;4941627;29;20032;-84
2023/03/31 01:38:00;;;;;;;4.95;2.10;;;11.70;85.00;;;;;;4950567;29;20005;-85
2023/03/31 01:40:37;;;;;;;4.22;1.90;;;11.70;85.00;;;;;;4949856;29;20031;-85
2023/03/31 01:43:13;;;;;;;4.90;2.10;;;11.70;85.00;;;;;;4948180;29;20028;-84
2023/03/31 01:46:14;;;;;;;4.15;2.00;;;11.70;85.00;;;;;;4948434;29;20027;-84
2023/03/31 01:48:53;;;;;;;3.42;1.90;;;11.70;85.00;;;;;;4947290;29;20035;-84
2023/03/31 01:51:27;;;;;;;4.55;2.00;;;11.70;85.00;;;;;;4946587;29;20060;-85
2023/03/31 01:54:04;;;;;;;3.80;1.95;;;11.70;85.00;;;;;;4947161;29;20477;-84
2023/03/31 01:56:35;;;;;;;3.25;1.70;;;11.70;85.00;;;;;;4937479;29;20032;-83
2023/03/31 01:59:16;;;;;;;3.95;1.95;;;11.70;85.00;;;;;;4935849;29;20051;-83
2023/03/31 02:02:00;;;;;;;3.35;1.70;;;11.70;85.00;;;;;;4941542;29;20063;-85
2023/03/31 02:04:41;;;;;;;3.75;1.77;;;11.70;85.10;;;;;;4946323;29;20084;-84
2023/03/31 02:07:16;;;;;;;;;;;11.70;85.00;;;;;;4944923;29;20043;-84
2023/03/31 02:09:47;;;;;;;3.78;1.70;;;11.70;85.50;;;;;;4934354;29;20376;-83
2023/03/31 02:12:15;;;;;;;4.75;1.80;;;11.70;85.10;;;;;;4941043;29;20095;-84
2023/03/31 02:14:45;;;;;;;4.30;1.98;;;11.70;85.00;;;;;;4943597;29;20457;-84
2023/03/31 02:17:17;;;;;;;3.55;1.67;;;11.70;85.10;;;;;;4938814;29;20040;-84
2023/03/31 02:19:46;;;;;;;3.25;1.67;;;11.70;85.10;;;;;;4942566;29;20091;-84
2023/03/31 02:22:13;;;;;;;3.15;1.60;;;11.70;85.10;;;;;;4935611;29;20103;-84
2023/03/31 02:24:40;;;;;;;3.08;1.45;;;11.70;85.10;;;;;;4943710;29;20115;-85
2023/03/31 02:27:14;;;;;;;3.90;1.83;;;11.70;85.10;;;;;;4934178;29;20110;-83
2023/03/31 02:29:40;;;;;;;3.75;1.80;;;11.70;85.10;;;;;;4939474;29;20036;-85
2023/03/31 02:32:10;;;;;;;4.22;1.70;;;11.70;85.70;;;;;;4939175;29;20028;-84
2023/03/31 02:34:36;;;;;;;3.67;1.60;;;11.70;85.10;;;;;;4933883;29;20082;-83
2023/03/31 02:37:02;;;;;;;4.18;1.80;;;11.70;85.10;;;;;;4942832;29;20028;-84
2023/03/31 02:39:32;;;;;;;4.05;1.63;;;11.70;85.10;;;;;;4938389;29;20080;-84
2023/03/31 02:41:58;;;;;;;3.63;1.70;;;11.70;85.10;;;;;;4935996;29;20473;-81
2023/03/31 02:44:24;;;;;;;3.42;1.52;;;11.70;85.10;;;;;;4940009;29;20039;-83
2023/03/31 02:46:50;;;;;;;2.72;1.50;;;11.70;85.10;;;;;;4940745;29;20455;-84
2023/03/31 02:49:18;;;;;;;3.47;1.70;;;11.70;85.10;;;;;;4940839;29;20032;-84
2023/03/31 02:51:56;;;;;;;4.47;2.00;;;11.70;85.60;;;;;;4939666;29;20028;-84
2023/03/31 02:54:57;;;;;;;3.90;1.70;;;11.70;85.10;;;;;;4941273;29;20047;-86
2023/03/31 02:57:32;;;;;;;3.42;1.80;;;11.70;85.10;;;;;;4926656;29;20040;-84
2023/03/31 03:00:28;;;;;;;4.32;1.80;;;11.70;85.10;;;;;;4939915;29;20058;-84
2023/03/31 03:03:28;;;;;;;3.35;1.60;;;11.70;85.20;;;;;;4939321;29;20066;-84
2023/03/31 03:06:21;;;;;;;4.05;1.55;;;11.70;85.10;;;;;;4941325;29;20035;-83
2023/03/31 03:09:03;;;;;;;4.13;1.65;;;11.70;85.10;;;;;;4940820;29;20036;-83
2023/03/31 03:11:45;;;;;;;3.90;1.60;;;11.70;85.20;;;;;;4940343;29;20083;-83
2023/03/31 03:14:27;;;;;;;4.00;1.70;;;11.70;85.10;;;;;;4939882;29;20031;-84
2023/03/31 03:17:09;;;;;;;3.63;1.58;;;11.70;85.10;;;;;;4939887;29;20032;-83
2023/03/31 03:19:35;;;;;;;3.97;1.60;;;11.70;85.10;;;;;;4936965;29;20028;-84
2023/03/31 03:22:00;;;;;;;2.92;1.40;;;11.70;85.20;;;;;;4938473;29;20086;-84
2023/03/31 03:24:28;;;;;;;3.05;1.35;;;11.70;85.20;;;;;;4938853;29;20028;-84
2023/03/31 03:26:54;;;;;;;3.65;1.60;;;11.70;85.20;;;;;;4939493;29;20439;-81
2023/03/31 03:29:20;;;;;;;3.42;1.40;;;11.70;85.20;;;;;;4936936;29;20040;-84
2023/03/31 03:31:46;;;;;;;3.17;1.45;;;11.70;85.10;;;;;;4937065;29;20024;-84
2023/03/31 03:34:12;;;;;;;3.45;1.40;;;11.70;85.10;;;;;;4937196;29;20027;-84
2023/03/31 03:36:38;;;;;;;3.35;1.58;;;11.70;85.10;;;;;;4937909;29;20087;-83
2023/03/31 03:39:06;;;;;;;3.20;1.40;;;11.70;85.20;;;;;;4938180;29;20051;-84
2023/03/31 03:41:32;;;;;;;2.85;1.30;;;11.70;85.10;;;;;;4940014;29;20023;-84
2023/03/31 03:43:59;;;;;;;4.43;1.50;;;11.70;85.20;;;;;;4938820;29;20020;-83
2023/03/31 03:46:24;;;;;;;2.55;1.40;;;11.70;85.20;;;;;;4938116;29;20082;-84
2023/03/31 03:48:50;;;;;;;3.80;1.40;;;11.70;85.20;;;;;;4937949;29;20058;-84
2023/03/31 03:51:15;;;;;;;3.00;1.30;;;11.70;85.20;;;;;;4939609;29;20396;-84
2023/03/31 03:53:41;;;;;;;3.05;1.40;;;11.70;85.20;;;;;;4937707;29;20428;-84
2023/03/31 03:56:06;;;;;;;3.95;1.60;;;11.70;85.20;;;;;;4936575;29;20118;-84
2023/03/31 03:58:32;;;;;;;2.97;1.55;;;11.70;85.20;;;;;;4936709;29;20036;-84
2023/03/31 04:00:58;;;;;;;2.70;1.20;;;11.70;85.20;;;;;;4936331;29;20091;-83
2023/03/31 04:03:23;;;;;;;3.40;1.70;;;11.70;85.20;;;;;;4936488;29;20504;-85
2023/03/31 04:05:49;;;;;;;3.28;1.50;;;11.70;85.20;;;;;;4935394;29;20039;-83
2023/03/31 04:08:15;;;;;;;3.28;1.55;;;11.70;85.30;;;;;;4936497;29;20024;-83
2023/03/31 04:10:48;;;;;;;3.03;1.30;;;11.70;85.20;;;;;;4938771;29;20083;-84
2023/03/31 04:13:14;;;;;;;3.65;1.40;;;11.70;85.80;;;;;;4937201;29;20024;-83
2023/03/31 04:15:40;;;;;;;3.22;1.50;;;11.70;85.30;;;;;;4936466;29;20032;-85
2023/03/31 04:18:09;;;;;;;2.50;1.20;;;11.70;85.30;;;;;;4933261;29;20034;-86
2023/03/31 04:20:37;;;;;;;3.53;1.20;;;11.70;85.30;;;;;;4946766;29;20079;-84
2023/03/31 04:23:08;;;;;;;2.83;1.20;;;11.70;85.30;;;;;;4938845;29;20549;-82
2023/03/31 04:25:37;;;;;;;3.20;1.20;;;11.70;85.30;;;;;;4941674;29;20028;-83
2023/03/31 04:28:05;;;;;;;3.38;1.42;;;11.70;85.30;;;;;;4940751;29;20994;-82
2023/03/31 04:30:38;;;;;;;2.78;1.20;;;11.70;85.30;;;;;;4941140;29;20492;-83
2023/03/31 04:33:11;;;;;;;2.83;1.20;;;11.70;85.30;;;;;;4935319;29;20508;-83
2023/03/31 04:35:48;;;;;;;2.95;1.40;;;12.20;85.60;;;;;;4940075;29;20035;-81
2023/03/31 04:38:18;;;;;;;2.55;1.30;;;11.70;85.30;;;;;;4939570;29;20083;-81
2023/03/31 04:43:51;;;;;;;2.42;1.30;;;11.70;85.40;;;;;;4931600;29;20032;-84
2023/03/31 04:46:48;;;;;;;2.83;1.40;;;11.70;85.40;;;;;;4943947;29;20068;-84
2023/03/31 04:49:36;;;;;;;3.05;1.55;;;11.60;85.30;;;;;;4947796;29;20118;-83
2023/03/31 04:52:53;;;;;;;3.10;1.20;;;11.70;85.40;;;;;;4956603;28;20035;-83
2023/03/31 04:55:33;;;;;;;2.35;1.00;;;11.70;85.30;;;;;;4886824;29;20099;-82
2023/03/31 04:58:12;;;;;;;2.55;1.25;;;11.70;85.40;;;;;;4880237;29;20512;-84
2023/03/31 05:00:38;;;;;;;3.45;1.30;;;11.80;85.50;;;;;;4876621;29;20032;-82
2023/03/31 05:03:08;;;;;;;3.15;1.38;;;12.90;86.00;;;;;;4862454;29;20037;-81
2023/03/31 05:05:34;;;;;;;2.67;1.38;;;12.30;85.70;;;;;;4868427;29;20049;-83
2023/03/31 05:08:00;;;;;;;2.88;1.30;;;11.70;85.40;;;;;;4936218;29;20565;-82
2023/03/31 05:10:25;;;;;;;2.33;1.00;;;11.60;85.30;;;;;;4942439;29;20032;-83
2023/03/31 05:12:51;;;;;;;3.10;1.30;;;11.70;85.40;;;;;;4937945;29;20042;-82
2023/03/31 05:15:17;;;;;;;2.50;1.30;;;11.70;85.40;;;;;;4935437;29;20027;-79
2023/03/31 05:17:42;;;;;;;2.22;1.00;;;11.70;85.40;;;;;;4939512;29;20034;-81
2023/03/31 05:20:08;;;;;;;2.53;1.20;;;11.70;85.40;;;;;;4947549;29;20027;-83
2023/03/31 05:22:36;;;;;;;2.60;1.20;;;11.70;85.40;;;;;;4954203;29;20027;-82
2023/03/31 05:25:04;;;;;;;3.22;1.45;;;11.60;85.40;;;;;;4954392;29;20027;-82
2023/03/31 05:27:29;;;;;;;3.22;1.35;;;11.70;85.40;;;;;;4935550;28;20034;-84
2023/03/31 05:29:55;;;;;;;2.90;1.40;;;11.60;85.40;;;;;;4929743;29;20257;-81
2023/03/31 05:32:20;;;;;;;2.45;1.10;;;11.70;85.40;;;;;;4931079;29;20043;-83
2023/03/31 05:34:47;;;;;;;3.17;1.40;;;11.70;85.40;;;;;;4934236;29;20032;-82
2023/03/31 05:37:12;;;;;;;1.85;1.10;;;11.70;85.40;;;;;;4931319;29;20027;-81
2023/03/31 05:39:38;;;;;;;3.10;1.40;;;11.70;85.40;;;;;;4951851;29;20388;-83
2023/03/31 05:42:04;;;;;;;1.90;1.00;;;11.70;85.40;;;;;;4953015;29;20490;-82
2023/03/31 05:44:30;;;;;;;2.08;1.10;;;11.70;85.40;;;;;;4954065;29;20469;-82
2023/03/31 05:46:56;;;;;;;2.90;1.33;;;11.70;85.50;;;;;;4953675;29;20055;-81
2023/03/31 05:49:21;;;;;;;3.15;1.15;;;11.70;85.40;;;;;;4953161;29;20543;-83
2023/03/31 05:51:47;;;;;;;2.40;1.17;;;11.60;85.40;;;;;;4939714;29;20028;-81
2023/03/31 05:54:13;;;;;;;2.45;1.10;;;11.70;85.40;;;;;;4932172;29;20407;-81
2023/03/31 05:56:38;;;;;;;2.78;1.30;;;11.70;85.40;;;;;;4933934;29;20550;-79
2023/03/31 05:59:04;;;;;;;3.60;1.48;;;11.70;85.40;;;;;;4945011;29;20068;-82
2023/03/31 06:01:29;;;;;;;1.90;1.20;;;11.70;85.40;;;;;;4936695;29;20032;-79
2023/03/31 06:03:55;;;;;;;2.58;1.20;;;11.50;85.30;;;;;;4942926;29;20027;-82
2023/03/31 06:06:22;;;;;;;3.15;1.42;;;11.70;85.40;;;;;;4941716;29;20547;-83
2023/03/31 06:08:48;;;;;;;2.33;1.10;;;11.70;85.40;;;;;;4943360;29;20035;-82
2023/03/31 06:11:19;;;;;;;2.13;1.20;;;11.70;85.40;;;;;;4943894;29;20485;-81
2023/03/31 06:13:45;;;;;;;;;;;11.70;85.50;;;;;;4942918;29;20032;-80
2023/03/31 06:16:12;;;;;;;2.75;1.00;;;11.70;85.40;;;;;;4944504;29;20478;-81
2023/03/31 06:18:39;;;;;;;2.78;1.08;;;11.70;85.40;;;;;;4941862;29;20028;-81
2023/03/31 06:21:05;;;;;;;3.58;1.27;;;11.70;85.40;;;;;;4936440;29;20031;-81
2023/03/31 06:23:31;;;;;;;3.03;1.00;;;11.70;85.40;;;;;;4936642;29;20031;-82
2023/03/31 06:26:02;;;;;;;2.10;1.20;;;11.70;85.40;;;;;;4933247;29;20024;-81
2023/03/31 06:28:28;;;;;;;3.20;1.63;;;11.70;85.40;;;;;;4921425;29;20030;-82
2023/03/31 06:31:01;;;;;;;3.38;1.20;;;11.70;85.40;;;;;;4923371;29;20114;-83
2023/03/31 06:33:26;;;;;;;2.38;1.10;;;11.70;85.50;;;;;;4938858;29;20028;-82
2023/03/31 06:35:55;;;;;;;2.05;0.98;;;11.70;85.50;;;;;;4918046;29;20032;-82
2023/03/31 06:38:20;;;;;;;1.88;1.00;;;11.60;85.40;;;;;;4918780;29;20031;-82
2023/03/31 06:40:46;;;;;;;3.10;1.20;;;11.70;85.60;;;;;;4918438;29;20537;-82
2023/03/31 06:43:11;;;;;;;2.25;1.10;;;11.70;85.60;;;;;;4925501;29;20020;-81
2023/03/31 06:45:37;;;;;;;2.47;1.17;;;11.70;85.60;;;;;;4919732;29;20398;-82
2023/03/31 06:48:02;;;;;;;2.45;1.08;;;11.70;85.60;;;;;;4920787;29;20079;-82
2023/03/31 06:50:28;;;;;;;2.70;1.27;;;11.60;85.70;;;;;;4922238;29;20123;-81
2023/03/31 06:52:54;;;;;;;3.35;1.25;;;11.70;85.80;;;;;;4922262;29;20035;-82
2023/03/31 06:55:19;;;;;;;1.65;1.00;;;11.70;85.90;;;;;;4922691;29;20028;-81
2023/03/31 06:57:45;;;;;;;3.60;1.13;;;11.70;85.80;;;;;;4922677;29;20038;-81
2023/03/31 07:00:11;;;;;;;1.75;1.00;;;11.70;85.80;;;;;;4918159;29;20032;-80
2023/03/31 07:02:37;;;;;;;2.40;1.10;;;11.70;85.80;;;;;;4918960;29;20027;-81
2023/03/31 07:05:02;;;;;;;2.38;1.10;;;11.70;85.70;;;;;;4918676;29;20028;-81
2023/03/31 07:07:31;;;;;;;2.72;1.10;;;11.70;85.80;;;;;;4917916;29;20125;-81
2023/03/31 07:09:56;;;;;;;2.42;1.10;;;11.70;86.20;;;;;;4920630;29;20035;-81
2023/03/31 07:12:22;;;;;;;3.42;1.20;;;11.70;86.20;;;;;;4920131;29;20032;-81
2023/03/31 07:14:47;;;;;;;2.17;0.95;;;11.70;86.30;;;;;;4920939;29;20556;-79
2023/03/31 07:17:13;;;;;;;2.60;1.17;;;11.70;86.10;;;;;;4920990;29;20024;-82
2023/03/31 07:19:40;;;;;;;3.72;1.20;;;11.70;86.00;;;;;;4918929;29;20020;-81
2023/03/31 07:22:07;;;;;;;2.17;1.00;;;11.70;86.00;;;;;;4918748;29;20040;-81
2023/03/31 07:24:32;;;;;;;3.30;1.20;;;11.70;85.80;;;;;;4917511;29;20028;-81
2023/03/31 07:26:58;;;;;;;2.88;1.10;;;11.70;85.70;;;;;;4932373;29;20034;-81
2023/03/31 07:29:23;;;;;;;1.63;0.90;;;11.80;85.70;;;;;;4936416;29;20058;-81
2023/03/31 07:31:49;;;;;;;2.22;1.08;;;11.70;85.60;;;;;;4936567;29;20091;-81
2023/03/31 07:34:15;;;;;;;2.65;0.93;;;11.70;85.60;;;;;;4936892;29;20026;-81
2023/03/31 07:36:40;;;;;;;1.90;1.00;;;11.70;85.60;;;;;;4936570;29;20024;-81
2023/03/31 07:39:06;;;;;;;2.25;1.02;;;11.60;85.60;;;;;;4936360;29;20073;-81
2023/03/31 07:41:31;;;;;;;2.17;1.02;;;11.70;85.70;;;;;;4936182;29;20096;-81
2023/03/31 07:43:57;;;;;;;1.75;1.00;;;11.80;85.70;;;;;;4936896;29;20428;-81
2023/03/31 07:46:26;;;;;;;3.08;1.23;;;11.70;85.70;;;;;;4936776;29;20044;-81
2023/03/31 07:48:53;;;;;;;2.53;1.10;;;11.70;85.70;;;;;;4936072;29;20047;-81
2023/03/31 07:51:22;;;;;;;3.33;1.23;;;11.70;85.70;;;;;;4943769;29;20015;-83
2023/03/31 07:53:48;;;;;;;2.38;1.00;;;11.70;85.70;;;;;;4958001;29;20031;-84
2023/03/31 07:56:15;;;;;;;1.95;1.05;;;11.70;85.70;;;;;;4956287;29;20070;-83
2023/03/31 07:58:41;;;;;;;2.90;0.93;;;11.70;85.70;;;;;;4957212;29;20051;-83
2023/03/31 08:01:07;;;;;;;2.33;1.00;;;11.80;85.80;;;;;;4954829;29;20590;-82
2023/03/31 08:03:33;;;;;;;1.52;0.90;;;11.70;85.70;;;;;;4955109;29;20004;-81
2023/03/31 08:05:58;;;;;;;3.17;1.33;;;11.70;85.80;;;;;;4953947;29;20024;-82
2023/03/31 08:08:25;;;;;;;2.17;0.90;;;11.70;85.70;;;;;;4952823;29;20028;-83
2023/03/31 08:10:50;;;;;;;1.85;1.00;;;11.70;85.80;;;;;;4952893;29;20052;-82
2023/03/31 08:13:16;;;;;;;2.58;1.10;;;11.70;85.70;;;;;;4953102;29;20123;-83
2023/03/31 08:15:41;;;;;;;2.38;1.00;;;11.70;86.20;;;;;;4951175;29;20020;-82
2023/03/31 08:18:07;;;;;;;1.55;1.00;;;11.70;85.80;;;;;;4951673;29;20496;-82
2023/03/31 08:20:33;;;;;;;1.67;0.82;;;11.70;85.80;;;;;;4950492;29;20020;-82
2023/03/31 08:22:59;;;;;;;3.03;1.00;;;11.70;85.90;;;;;;4953225;29;20310;-82
2023/03/31 08:25:24;;;;;;;3.38;1.27;;;11.70;86.30;;;;;;4948722;29;20035;-83
2023/03/31 08:27:50;;;;;;;2.50;1.00;;;11.70;85.80;;;;;;4949956;29;20557;-81
2023/03/31 08:30:17;;;;;;;1.83;0.93;;;11.70;86.00;;;;;;4948427;29;20031;-83
2023/03/31 08:32:43;;;;;;;2.08;0.88;;;11.70;85.80;;;;;;4947363;29;20480;-81
2023/03/31 08:35:09;;;;;;;1.95;1.00;;;11.70;86.00;;;;;;4947968;29;20058;-82
2023/03/31 08:37:36;;;;;;;2.45;0.90;;;11.70;85.90;;;;;;4947009;29;20031;-82
2023/03/31 08:40:04;;;;;;;1.85;1.00;;;11.70;85.90;;;;;;4945641;29;20104;-81
2023/03/31 08:42:40;;;;;;;2.88;1.08;;;11.70;85.90;;;;;;4946499;29;20023;-81
2023/03/31 08:45:28;;;;;;;2.58;1.10;;;11.70;85.90;;;;;;4951787;29;20091;-83
2023/03/31 08:48:02;;;;;;;2.22;1.10;;;11.70;85.90;;;;;;4956017;29;20043;-83
2023/03/31 08:50:31;;;;;;;2.05;0.95;;;11.80;85.90;;;;;;4954869;29;20038;-82
2023/03/31 08:53:06;;;;;;;2.33;1.00;;;11.70;85.90;;;;;;4953379;29;20024;-82
2023/03/31 08:55:47;;;;;;;1.30;0.80;;;11.70;85.90;;;;;;4953590;29;20028;-83
2023/03/31 08:58:19;;;;;;;;;;;11.80;86.00;;;;;;4954111;29;20075;-82
2023/03/31 09:00:52;;;;;;;3.05;1.10;;;11.70;85.90;;;;;;4952024;29;20005;-83
2023/03/31 09:03:34;;;;;;;1.92;0.95;;;11.70;85.90;;;;;;4953923;29;20043;-83
2023/03/31 09:06:15;;;;;;;1.58;0.98;;;11.70;85.90;;;;;;4951744;29;20091;-84
2023/03/31 09:08:41;;;;;;;2.17;1.00;;;11.70;85.90;;;;;;4951439;29;20060;-82
2023/03/31 09:11:10;;;;;;;1.58;0.90;;;11.60;85.90;;;;;;4951685;29;20043;-82
2023/03/31 09:14:15;;;;;;;2.00;0.90;;;11.70;85.90;;;;;;4952773;29;20016;-82
2023/03/31 09:17:01;;;;;;;1.95;0.80;;;11.70;85.90;;;;;;4948296;29;20031;-83
2023/03/31 09:19:38;;;;;;;1.45;0.90;;;11.80;86.00;;;;;;4946462;29;20023;-81
2023/03/31 09:22:13;;;;;;;1.73;0.80;;;11.70;86.00;;;;;;4934001;29;20023;-81
2023/03/31 09:24:57;;;;;;;2.35;0.90;;;11.70;85.90;;;;;;4941175;29;20117;-81
2023/03/31 09:27:25;;;;;;;2.33;0.93;;;11.70;85.90;;;;;;4924876;29;20024;-81
2023/03/31 09:29:55;;;;;;;3.10;1.10;;;11.70;85.90;;;;;;4926766;29;20091;-81
2023/03/31 09:32:24;;;;;;;1.88;0.80;;;11.80;86.00;;;;;;4926706;29;20063;-82
2023/03/31 09:34:56;;;;;;;1.58;0.77;;;11.70;85.90;;;;;;4919171;29;20036;-81
2023/03/31 09:37:31;;;;;;;1.70;0.73;;;11.70;86.00;;;;;;4919265;29;20032;-81
2023/03/31 09:39:59;;;;;;;1.88;0.88;;;11.70;85.90;;;;;;4925441;29;20048;-81
2023/03/31 09:42:25;;;;;;;1.73;0.90;;;11.80;86.00;;;;;;4925174;29;20024;-81
2023/03/31 09:44:50;;;;;;;2.17;0.90;;;11.80;85.90;;;;;;4925236;29;20059;-81
2023/03/31 09:47:41;;;;;;;2.22;0.98;;;11.70;85.80;;;;;;4923444;29;20032;-81
2023/03/31 09:50:08;;;;;;;2.65;0.90;;;11.80;85.80;;;;;;4923082;29;20028;-81
2023/03/31 09:52:41;;;;;;;2.00;0.90;;;11.80;85.80;;;;;;4923455;29;20024;-82
2023/03/31 09:55:41;;;;;;;1.77;0.88;;;11.80;85.80;;;;;;4923283;29;20024;-82
2023/03/31 09:58:11;;;;;;;;;;;11.80;85.70;;;;;;4922776;29;20068;-81
2023/03/31 10:00:41;;;;;;;2.28;0.95;;;11.90;85.80;;;;;;4921245;29;19951;-81
2023/03/31 10:03:06;;;;;;;1.23;0.70;;;11.80;85.70;;;;;;4921698;29;20028;-81
2023/03/31 10:05:49;;;;;;;2.75;0.95;;;11.80;85.70;;;;;;4922105;29;20063;-81
2023/03/31 10:08:32;;;;;;;1.85;0.90;;;11.80;85.70;;;;;;4919425;29;20028;-81
2023/03/31 10:11:10;;;;;;;1.90;0.85;;;11.80;85.70;;;;;;4975848;23;20078;-83
2023/03/31 10:13:59;;;;;;;2.30;1.10;;;11.80;85.70;;;;;;4959314;28;20118;-82
2023/03/31 10:16:55;;;;;;;1.55;0.88;;;11.80;85.70;;;;;;4976999;28;20023;-82
2023/03/31 10:19:26;;;;;;;1.17;0.80;;;11.80;85.70;;;;;;4976943;28;20476;-82
2023/03/31 10:22:00;;;;;;;1.63;0.80;;;11.80;85.70;;;;;;4959234;28;20030;-83
2023/03/31 10:24:37;;;;;;;2.28;0.90;;;11.80;85.70;;;;;;4959489;28;20073;-83
2023/03/31 10:27:06;;;;;;;1.48;0.80;;;11.90;85.70;;;;;;4976861;28;20107;-85
2023/03/31 10:29:33;;;;;;;1.45;0.80;;;11.80;85.60;;;;;;4959085;28;20166;-81
2023/03/31 10:32:07;;;;;;;0.63;0.50;;;11.90;85.70;;;;;;4959199;28;20499;-83
2023/03/31 10:34:34;;;;;;;1.30;0.80;;;11.90;85.70;;;;;;4959299;28;20516;-83
2023/03/31 10:37:03;;;;;;;1.88;0.77;;;11.90;85.60;;;;;;4959031;28;20483;-82
2023/03/31 10:39:32;;;;;;;2.13;0.88;;;11.90;85.60;;;;;;4959201;28;20025;-82
2023/03/31 10:41:58;;;;;;;1.95;0.80;;;11.90;85.60;;;;;;4959016;28;20034;-82
2023/03/31 10:44:35;;;;;;;1.67;0.80;;;11.90;85.50;;;;;;4959085;28;20121;-83
2023/03/31 10:47:13;;;;;;;2.22;0.95;;;11.90;85.40;;;;;;4959048;28;20045;-82
2023/03/31 10:49:40;;;;;;;1.15;0.60;;;11.90;85.40;;;;;;4958917;28;20118;-84
2023/03/31 10:52:21;;;;;;;1.75;0.90;;;11.90;85.40;;;;;;4958732;28;20392;-82
2023/03/31 10:54:48;;;;;;;1.20;0.70;;;11.90;85.40;;;;;;4976484;28;20034;-84
2023/03/31 10:57:16;;;;;;;1.88;0.80;;;11.90;85.40;;;;;;4976369;28;20045;-82
2023/03/31 11:00:12;;;;;;;2.03;0.93;;;11.90;85.50;;;;;;4958605;28;20023;-83
2023/03/31 11:02:49;;;;;;;1.13;0.70;;;11.90;85.50;;;;;;4958688;28;20030;-83
2023/03/31 11:05:50;;;;;;;2.00;0.77;;;11.90;85.50;;;;;;4976107;28;20027;-82
2023/03/31 11:08:41;;;;;;;1.85;0.85;;;11.90;85.50;;;;;;4926956;28;20030;-83
2023/03/31 11:11:22;;;;;;;1.98;0.80;;;11.80;85.50;;;;;;4958260;28;20027;-82
2023/03/31 11:13:59;;;;;;;1.77;0.80;;;11.90;85.60;;;;;;4958432;28;20047;-84
2023/03/31 11:16:35;;;;;;;1.60;0.80;;;11.90;85.60;;;;;;4975216;28;20023;-82
2023/03/31 11:19:36;;;;;;;1.50;0.80;;;11.90;85.60;;;;;;4958469;28;20030;-83
2023/03/31 11:22:23;;;;;;;1.17;0.75;;;11.90;85.60;;;;;;4957628;28;20035;-83
2023/03/31 11:25:07;;;;;;;1.35;0.80;;;11.80;85.60;;;;;;4958295;28;20484;-82
2023/03/31 11:27:41;;;;;;;1.88;0.88;;;11.90;85.70;;;;;;4954987;29;20404;-82
2023/03/31 11:30:20;;;;;;;1.65;0.70;;;11.80;85.60;;;;;;4939163;29;20507;-83
2023/03/31 11:33:18;;;;;;;1.67;0.70;;;11.90;85.60;;;;;;4956144;29;20027;-82
2023/03/31 11:35:59;;;;;;;1.45;0.70;;;11.80;85.60;;;;;;4907286;29;20035;-82
2023/03/31 11:38:30;;;;;;;1.55;0.70;;;11.90;85.60;;;;;;4939211;29;20381;-82
2023/03/31 11:41:05;;;;;;;1.25;0.70;;;11.80;85.60;;;;;;4938535;29;20028;-80
2023/03/31 11:44:02;;;;;;;1.55;0.70;;;11.90;85.60;;;;;;4939151;29;20377;-82
2023/03/31 11:46:57;;;;;;;1.02;0.60;;;11.90;85.60;;;;;;4932986;29;20500;-84
2023/03/31 11:49:37;;;;;;;1.10;0.60;;;11.90;85.60;;;;;;4930492;29;20043;-82
2023/03/31 11:52:18;;;;;;;0.98;0.70;;;11.90;85.50;;;;;;4938509;29;20034;-81
2023/03/31 11:55:14;;;;;;;2.47;0.70;;;11.90;85.50;;;;;;4955732;29;20166;-82
2023/03/31 11:58:00;;;;;;;1.63;0.70;;;11.90;85.40;;;;;;4938575;29;20038;-82
2023/03/31 12:00:37;;;;;;;1.40;0.80;;;11.90;85.40;;;;;;4938296;29;20023;-82
2023/03/31 12:03:23;;;;;;;1.70;0.80;;;11.90;85.40;;;;;;4938860;29;20023;-82
2023/03/31 12:05:57;;;;;;;2.13;0.60;;;11.90;85.30;;;;;;4938279;29;20020;-82
2023/03/31 12:08:36;;;;;;;1.38;0.70;;;12.00;85.30;;;;;;4938402;29;20046;-82
2023/03/31 12:11:11;;;;;;;0.93;0.55;;;12.00;85.30;;;;;;4938007;29;20043;-82
2023/03/31 12:14:11;;;;;;;1.10;0.70;;;11.90;85.30;;;;;;4938192;29;20042;-82
2023/03/31 12:16:51;;;;;;;1.17;0.73;;;12.00;85.30;;;;;;4938233;29;20042;-82
2023/03/31 12:19:42;;;;;;;0.60;0.60;;;11.90;85.80;;;;;;4938043;29;20090;-84
2023/03/31 12:22:36;;;;;;;1.38;0.63;;;11.90;85.30;;;;;;4937953;29;20035;-83
2023/03/31 12:25:02;;;;;;;2.72;0.85;;;12.00;85.30;;;;;;4938047;29;20024;-83
2023/03/31 12:27:37;;;;;;;0.63;0.50;;;11.90;85.20;;;;;;4955600;28;20037;-84
2023/03/31 12:30:14;;;;;;;1.33;0.60;;;12.00;85.40;;;;;;4957033;28;20056;-84
2023/03/31 12:32:44;;;;;;;1.05;0.57;;;12.00;85.20;;;;;;4957143;28;20122;-84
2023/03/31 12:35:18;;;;;;;1.73;0.80;;;12.00;85.10;;;;;;4957396;28;20030;-82
2023/03/31 12:38:09;;;;;;;1.70;0.65;;;12.00;85.00;;;;;;4956662;28;20026;-82
2023/03/31 12:41:08;;;;;;;1.25;0.63;;;12.00;85.00;;;;;;4956702;28;20111;-82
2023/03/31 12:43:39;;;;;;;1.63;0.70;;;12.10;84.90;;;;;;4974196;28;20038;-82
2023/03/31 12:46:50;;;;;;;1.52;0.85;;;12.10;84.80;;;;;;4974444;28;20088;-83
2023/03/31 12:49:46;;;;;;;0.90;0.70;;;12.10;84.70;;;;;;4956814;28;20027;-84
2023/03/31 12:52:23;;;;;;;1.92;0.82;;;12.20;84.70;;;;;;4905373;28;20048;-82
2023/03/31 12:55:16;;;;;;;0.93;0.60;;;12.10;84.50;;;;;;4956743;28;20546;-82
2023/03/31 12:57:42;;;;;;;1.20;0.70;;;12.10;84.50;;;;;;4946308;28;20035;-83
2023/03/31 13:00:10;;;;;;;1.80;0.75;;;12.20;84.60;;;;;;4956374;28;20034;-82
2023/03/31 13:02:36;;;;;;;1.40;0.63;;;12.10;84.50;;;;;;4973566;28;20023;-83
2023/03/31 13:05:38;;;;;;;1.52;0.70;;;12.20;84.60;;;;;;4956554;28;20082;-83
2023/03/31 13:08:06;;;;;;;1.63;0.68;;;12.20;84.70;;;;;;4956558;28;20118;-82
2023/03/31 13:10:51;;;;;;;1.88;0.80;;;12.10;84.50;;;;;;4955651;28;20030;-80
2023/03/31 13:13:17;;;;;;;1.77;0.73;;;12.10;84.60;;;;;;4956553;28;20034;-84
2023/03/31 13:15:56;;;;;;;1.27;0.90;;;12.10;84.80;;;;;;4956340;28;20023;-82
2023/03/31 13:18:23;;;;;;;1.73;0.80;;;12.10;84.80;;;;;;4956287;28;20022;-82
2023/03/31 13:21:00;;;;;;;2.08;0.60;;;12.10;84.90;;;;;;4956063;28;20503;-82